Time;durP1;ratioP1;P1;durP2;ratioP2;P2;SDS_P1;SDS_P2;PMS_P1;PMS_P2;Temp;Humidity;BMP_temperature;BMP_pressure;BME280_temperature;BME280_humidity;BME280_pressure;Samples;Min_cycle;Max_cycle;Signal;HPM_P1;HPM_P2
2021/08/04 00:01:48;;;;;;;2.85;2.22;;;;;;;15.77;85.45;96334.55;1721232;82;20925;-81
2021/08/04 00:04:14;;;;;;;2.27;2.00;;;;;;;15.80;85.95;96324.98;1703365;82;21019;-81
2021/08/04 00:06:40;;;;;;;3.10;2.10;;;;;;;15.80;85.68;96325.78;1712956;82;21284;-81
2021/08/04 00:09:06;;;;;;;2.50;1.75;;;;;;;15.82;85.58;96325.56;1713300;82;20925;-81
2021/08/04 00:11:32;;;;;;;3.30;1.77;;;;;;;15.87;85.87;96328.33;1699419;83;20926;-81
2021/08/04 00:13:59;;;;;;;2.10;1.50;;;;;;;15.92;85.54;96323.23;1734136;82;21041;-81
2021/08/04 00:16:25;;;;;;;3.45;2.22;;;;;;;15.95;84.54;96324.64;1729034;82;21379;-81
2021/08/04 00:18:51;;;;;;;2.80;2.10;;;;;;;16.02;84.86;96321.44;1736236;82;20978;-81
2021/08/04 00:21:16;;;;;;;3.12;1.70;;;;;;;16.04;84.44;96322.02;1717903;82;20980;-81
2021/08/04 00:23:42;;;;;;;4.58;1.80;;;;;;;16.04;84.54;96319.39;1696947;83;20949;-81
2021/08/04 00:26:08;;;;;;;4.33;1.90;;;;;;;16.06;84.49;96316.84;1722964;81;21268;-81
2021/08/04 00:28:33;;;;;;;3.12;1.70;;;;;;;16.06;84.10;96314.22;1721449;81;20944;-81
2021/08/04 00:30:59;;;;;;;3.45;1.75;;;;;;;16.09;84.23;96311.16;1710684;82;21299;-81
2021/08/04 00:33:25;;;;;;;2.83;1.60;;;;;;;16.11;83.70;96314.39;1743556;81;20969;-81
2021/08/04 00:35:50;;;;;;;5.90;3.62;;;;;;;16.16;83.98;96331.57;1740479;81;20999;-81
2021/08/04 00:38:16;;;;;;;9.48;4.40;;;;;;;16.12;83.59;96367.11;1726036;82;20990;-81
2021/08/04 00:40:42;;;;;;;3.77;3.10;;;;;;;15.89;82.83;96356.42;1709956;83;20904;-81
2021/08/04 00:43:08;;;;;;;4.85;3.40;;;;;;;15.80;83.28;96374.76;1713996;82;20954;-81
2021/08/04 00:45:35;;;;;;;5.37;3.75;;;;;;;15.75;82.84;96381.92;1730357;80;21364;-81
2021/08/04 00:48:02;;;;;;;5.85;3.65;;;;;;;15.76;83.03;96376.17;1745765;81;21028;-81
2021/08/04 00:50:28;;;;;;;4.72;3.50;;;;;;;15.78;83.46;96378.08;1744329;81;20948;-81
2021/08/04 00:52:53;;;;;;;4.45;3.10;;;;;;;15.77;83.84;96374.65;1728373;81;21343;-81
2021/08/04 00:55:19;;;;;;;4.97;2.77;;;;;;;15.75;84.01;96374.58;1737717;82;20944;-81
2021/08/04 00:57:45;;;;;;;7.45;3.20;;;;;;;15.76;84.37;96374.87;1727951;82;21020;-81
2021/08/04 01:00:11;;;;;;;4.17;2.90;;;;;;;15.76;84.27;96370.94;1744844;81;20948;-80
2021/08/04 01:02:58;;;;;;;4.10;2.87;;;;;;;15.79;84.13;96377.09;1724508;81;21374;-81
2021/08/04 01:05:34;;;;;;;4.62;3.25;;;;;;;15.82;84.00;96380.07;1746698;82;20937;-81
2021/08/04 01:08:08;;;;;;;4.35;3.40;;;;;;;15.86;83.41;96393.03;1717454;82;21304;-81
2021/08/04 01:10:48;;;;;;;3.75;3.42;;;;;;;15.90;83.34;96394.70;1716478;82;20956;-81
2021/08/04 01:13:22;;;;;;;6.28;3.67;;;;;;;15.89;83.01;96401.77;1716809;82;21051;-81
2021/08/04 01:16:25;;;;;;;6.75;4.22;;;;;;;15.90;83.22;96415.67;1716768;81;21052;-81
2021/08/04 01:19:12;;;;;;;6.72;4.10;;;;;;;15.90;83.04;96419.59;1731083;81;21016;-81
2021/08/04 01:21:58;;;;;;;7.25;4.33;;;;;;;15.85;83.25;96428.62;1759519;81;21000;-81
2021/08/04 01:24:41;;;;;;;5.08;3.83;;;;;;;15.84;83.54;96428.33;1732682;82;20933;-81
2021/08/04 01:27:06;;;;;;;6.08;5.30;;;;;;;15.85;83.73;96434.66;1723271;82;20938;-80
2021/08/04 01:29:32;;;;;;;6.28;5.05;;;;;;;15.84;83.76;96429.63;1731436;81;20953;-80
2021/08/04 01:32:00;;;;;;;5.42;4.80;;;;;;;15.85;83.97;96428.11;1716426;81;21418;-80
2021/08/04 01:34:26;;;;;;;4.67;3.70;;;;;;;15.85;83.90;96420.75;1692632;82;20968;-81
2021/08/04 01:36:52;;;;;;;5.05;3.92;;;;;;;15.84;83.61;96418.65;1697816;82;20937;-81
2021/08/04 01:39:18;;;;;;;5.53;4.25;;;;;;;15.85;83.42;96411.59;1713278;82;20941;-80
2021/08/04 01:41:44;;;;;;;6.62;3.98;;;;;;;15.88;83.45;96411.16;1718355;82;20957;-81
2021/08/04 01:44:10;;;;;;;7.45;4.47;;;;;;;15.94;83.57;96406.86;1718263;81;20964;-80
2021/08/04 01:46:35;;;;;;;6.20;3.95;;;;;;;15.96;83.78;96399.11;1737907;81;20988;-80
2021/08/04 01:49:03;;;;;;;4.90;3.80;;;;;;;15.96;83.71;96396.48;1721931;80;21319;-80
2021/08/04 01:51:29;;;;;;;5.08;3.25;;;;;;;15.98;83.73;96387.09;1723984;80;21006;-81
2021/08/04 01:53:55;;;;;;;6.17;3.60;;;;;;;15.98;83.23;96397.07;1743955;82;21295;-80
2021/08/04 01:56:21;;;;;;;5.15;3.50;;;;;;;15.97;83.66;96395.47;1722121;82;21028;-80
2021/08/04 01:58:47;;;;;;;5.53;2.90;;;;;;;15.96;83.83;96391.76;1724864;82;20921;-80
2021/08/04 02:01:13;;;;;;;3.62;2.65;;;;;;;15.93;83.82;96385.10;1721290;82;21283;-80
2021/08/04 02:03:39;;;;;;;5.08;2.80;;;;;;;15.90;83.92;96378.98;1724184;82;21027;-80
2021/08/04 02:06:21;;;;;;;8.60;2.83;;;;;;;15.87;84.17;96367.12;1722312;80;20955;-80
2021/08/04 02:09:02;;;;;;;;;;;;;;;15.84;83.93;96370.17;1718589;82;21291;-81
2021/08/04 02:11:56;;;;;;;6.15;2.50;;;;;;;15.82;84.16;96362.23;1731878;82;20119;-80
2021/08/04 02:14:39;;;;;;;2.60;2.15;;;;;;;15.77;84.38;96349.77;1721541;82;21402;-80
2021/08/04 02:17:21;;;;;;;5.25;2.55;;;;;;;15.75;84.45;96347.07;1722613;82;21079;-80
2021/08/04 02:20:22;;;;;;;3.17;1.92;;;;;;;15.71;84.61;96336.23;1734886;82;21055;-80
2021/08/04 02:23:19;;;;;;;4.75;2.10;;;;;;;15.67;84.62;96335.06;1724031;80;21229;-80
2021/08/04 02:25:52;;;;;;;4.15;1.90;;;;;;;15.63;84.76;96332.58;1728888;80;20952;-80
2021/08/04 02:28:23;;;;;;;5.22;1.67;;;;;;;15.63;84.75;96325.23;1740992;80;20963;-80
2021/08/04 02:30:49;;;;;;;3.15;1.57;;;;;;;15.62;84.85;96325.74;1722433;80;21003;-80
2021/08/04 02:33:15;;;;;;;2.80;1.82;;;;;;;15.60;84.82;96320.69;1721763;80;21298;-81
2021/08/04 02:35:41;;;;;;;4.67;1.50;;;;;;;15.58;84.73;96320.08;1736463;80;20921;-81
2021/08/04 02:38:07;;;;;;;3.65;1.60;;;;;;;15.56;84.77;96314.77;1748162;80;20944;-80
2021/08/04 02:40:33;;;;;;;2.27;1.30;;;;;;;15.53;84.77;96312.58;1732666;80;21372;-80
2021/08/04 02:42:59;;;;;;;2.72;1.30;;;;;;;15.50;84.71;96311.20;1732724;80;20976;-80
2021/08/04 02:45:25;;;;;;;3.22;1.47;;;;;;;15.47;84.60;96308.20;1729207;80;21299;-81
2021/08/04 02:47:51;;;;;;;1.32;0.95;;;;;;;15.45;84.58;96310.21;1747767;82;20988;-81
2021/08/04 02:50:16;;;;;;;2.47;1.22;;;;;;;15.40;84.50;96309.55;1719780;81;21027;-80
2021/08/04 02:52:42;;;;;;;2.67;1.32;;;;;;;15.36;84.32;96306.27;1734505;81;21011;-80
2021/08/04 02:55:09;;;;;;;2.72;1.20;;;;;;;15.34;84.17;96313.55;1717381;82;20977;-80
2021/08/04 02:57:35;;;;;;;2.85;1.30;;;;;;;15.31;84.31;96316.88;1716864;81;20993;-81
2021/08/04 03:00:01;;;;;;;3.87;1.40;;;;;;;15.29;84.27;96314.98;1723690;82;20949;-80
2021/08/04 03:02:26;;;;;;;1.65;1.20;;;;;;;15.27;84.38;96305.72;1735348;81;20948;-81
2021/08/04 03:04:52;;;;;;;1.50;1.17;;;;;;;15.25;84.38;96311.67;1737055;81;21304;-81
2021/08/04 03:07:18;;;;;;;1.82;1.32;;;;;;;15.24;84.32;96300.41;1734734;81;20960;-81
2021/08/04 03:09:44;;;;;;;2.92;1.30;;;;;;;15.27;84.24;96300.48;1723272;81;21012;-81
2021/08/04 03:12:09;;;;;;;4.58;1.37;;;;;;;15.27;84.45;96297.87;1714151;82;21386;-81
2021/08/04 03:14:35;;;;;;;1.80;1.25;;;;;;;15.29;84.60;96283.58;1717129;81;20945;-80
2021/08/04 03:17:01;;;;;;;2.45;1.50;;;;;;;15.27;84.79;96280.34;1722017;81;21019;-80
2021/08/04 03:19:27;;;;;;;3.27;1.55;;;;;;;15.24;84.54;96275.54;1717533;81;20915;-81
2021/08/04 03:21:52;;;;;;;2.35;1.70;;;;;;;15.28;84.33;96278.53;1735448;81;21256;-80
2021/08/04 03:24:18;;;;;;;2.52;1.98;;;;;;;15.34;83.95;96278.20;1733357;81;20968;-81
2021/08/04 03:26:44;;;;;;;2.27;1.82;;;;;;;15.38;83.71;96291.15;1717682;82;20916;-81
2021/08/04 03:29:09;;;;;;;2.72;2.25;;;;;;;15.42;83.17;96286.58;1701974;82;21326;-81
2021/08/04 03:31:35;;;;;;;2.33;1.92;;;;;;;15.45;83.15;96285.34;1717091;81;21079;-81
2021/08/04 03:34:01;;;;;;;3.40;2.30;;;;;;;15.40;82.82;96288.61;1732614;81;20928;-81
2021/08/04 03:36:28;;;;;;;2.62;1.85;;;;;;;15.41;82.95;96290.20;1733097;81;21331;-81
2021/08/04 03:38:55;;;;;;;3.80;2.62;;;;;;;15.36;83.18;96291.37;1731891;81;20965;-81
2021/08/04 03:41:20;;;;;;;3.85;2.20;;;;;;;15.38;83.43;96291.95;1745160;82;20980;-81
2021/08/04 03:43:46;;;;;;;4.60;2.45;;;;;;;15.39;83.71;96294.06;1724563;82;20931;-80
2021/08/04 03:46:12;;;;;;;3.58;2.70;;;;;;;15.39;83.90;96307.95;1716295;82;21007;-81
2021/08/04 03:48:38;;;;;;;3.75;2.08;;;;;;;15.41;83.92;96309.05;1732559;81;21083;-81
2021/08/04 03:51:03;;;;;;;2.67;1.90;;;;;;;15.43;84.43;96313.05;1718755;81;20972;-81
2021/08/04 03:53:29;;;;;;;3.45;2.58;;;;;;;15.48;84.47;96310.61;1719174;82;21092;-81
2021/08/04 03:55:55;;;;;;;3.22;2.00;;;;;;;15.53;84.43;96319.92;1724501;81;21004;-81
2021/08/04 03:58:21;;;;;;;3.33;2.33;;;;;;;15.55;84.46;96312.66;1723990;81;20993;-81
2021/08/04 04:00:47;;;;;;;2.05;1.82;;;;;;;15.56;84.52;96316.88;1733359;81;21279;-81
2021/08/04 04:03:13;;;;;;;6.22;2.47;;;;;;;15.57;84.53;96317.17;1720564;81;20988;-81
2021/08/04 04:05:39;;;;;;;2.72;2.02;;;;;;;15.56;84.55;96312.95;1717698;82;20973;-80
2021/08/04 04:08:04;;;;;;;4.03;2.42;;;;;;;15.56;84.54;96319.49;1734072;81;21303;-80
2021/08/04 04:10:30;;;;;;;3.98;2.12;;;;;;;15.58;84.54;96329.75;1722693;81;20956;-81
2021/08/04 04:12:56;;;;;;;2.42;2.00;;;;;;;15.61;84.51;96333.28;1719750;82;20948;-80
2021/08/04 04:15:21;;;;;;;4.90;2.47;;;;;;;15.65;84.51;96344.15;1717931;81;21330;-81
2021/08/04 04:17:47;;;;;;;4.42;2.50;;;;;;;15.65;84.44;96348.08;1720088;82;20976;-81
2021/08/04 04:20:13;;;;;;;3.50;2.52;;;;;;;15.67;84.52;96350.77;1732564;81;21270;-81
2021/08/04 04:22:43;;;;;;;3.65;2.27;;;;;;;15.69;84.59;96353.98;1731882;81;21016;-81
2021/08/04 04:25:09;;;;;;;2.65;2.25;;;;;;;15.71;84.47;96354.56;1726329;82;21360;-80
2021/08/04 04:27:34;;;;;;;5.15;2.37;;;;;;;15.78;84.45;96354.02;1732728;82;21047;-80
2021/08/04 04:30:00;;;;;;;2.92;2.25;;;;;;;15.84;84.47;96355.77;1737823;81;20978;-80
2021/08/04 04:32:26;;;;;;;3.67;2.62;;;;;;;15.85;84.55;96352.13;1727835;82;21001;-81
2021/08/04 04:34:51;;;;;;;3.65;2.60;;;;;;;15.86;84.75;96345.06;1705827;83;21362;-80
2021/08/04 04:37:17;;;;;;;5.08;2.20;;;;;;;15.86;84.89;96349.80;1724224;82;21004;-81
2021/08/04 04:39:43;;;;;;;3.77;2.10;;;;;;;15.86;85.06;96351.11;1744968;81;20972;-81
2021/08/04 04:42:08;;;;;;;9.20;5.30;;;;;;;15.91;85.11;96357.00;1721992;81;21397;-81
2021/08/04 04:44:35;;;;;;;4.45;2.22;;;;;;;15.96;85.02;96347.20;1716787;82;20965;-81
2021/08/04 04:47:01;;;;;;;5.20;2.20;;;;;;;15.98;85.06;96351.72;1721629;82;21299;-80
2021/08/04 04:49:26;;;;;;;5.17;2.90;;;;;;;16.06;85.19;96349.61;1691432;83;21002;-81
2021/08/04 04:51:52;;;;;;;4.65;3.30;;;;;;;16.14;85.43;96354.58;1723929;81;20952;-81
2021/08/04 04:54:18;;;;;;;4.60;3.22;;;;;;;16.20;85.40;96361.56;1705127;83;20987;-81
2021/08/04 04:56:43;;;;;;;3.70;2.52;;;;;;;16.30;85.15;96355.83;1716182;82;22071;-81
2021/08/04 04:59:09;;;;;;;5.33;2.60;;;;;;;16.41;85.09;96361.64;1711601;83;21419;-81
2021/08/04 05:01:35;;;;;;;5.97;3.65;;;;;;;16.49;85.01;96368.44;1729334;81;20947;-81
2021/08/04 05:04:01;;;;;;;5.45;3.37;;;;;;;16.54;84.89;96371.19;1706670;83;20959;-81
2021/08/04 05:06:26;;;;;;;7.00;2.47;;;;;;;16.62;85.27;96373.53;1700340;83;20986;-81
2021/08/04 05:08:52;;;;;;;2.58;1.80;;;;;;;16.66;84.94;96366.82;1716488;81;20921;-80
2021/08/04 05:11:18;;;;;;;3.95;2.00;;;;;;;16.67;84.74;96371.59;1700067;83;21311;-81
2021/08/04 05:13:44;;;;;;;7.17;1.67;;;;;;;16.68;84.78;96367.94;1698557;83;20989;-81
2021/08/04 05:16:09;;;;;;;3.50;1.50;;;;;;;16.70;84.79;96371.94;1718687;81;21099;-81
2021/08/04 05:18:35;;;;;;;2.22;2.00;;;;;;;16.73;84.75;96375.44;1743376;81;20976;-81
2021/08/04 05:21:01;;;;;;;3.80;2.02;;;;;;;16.78;84.75;96375.59;1703311;83;20990;-81
2021/08/04 05:23:26;;;;;;;2.85;2.10;;;;;;;16.85;84.86;96378.13;1735532;81;20914;-81
2021/08/04 05:25:52;;;;;;;3.65;2.00;;;;;;;16.94;84.77;96383.89;1698994;83;21298;-80
2021/08/04 05:28:18;;;;;;;2.95;2.12;;;;;;;16.93;84.69;96381.77;1713113;82;20913;-81
2021/08/04 05:30:43;;;;;;;6.00;1.60;;;;;;;16.97;84.61;96377.67;1691776;83;20986;-80
2021/08/04 05:33:09;;;;;;;3.52;1.82;;;;;;;17.03;84.72;96379.91;1738877;81;20957;-81
2021/08/04 05:35:35;;;;;;;3.72;1.65;;;;;;;17.07;84.65;96372.67;1703754;82;20995;-81
2021/08/04 05:38:01;;;;;;;2.67;1.82;;;;;;;17.13;84.48;96380.19;1720750;81;20925;-81
2021/08/04 05:40:26;;;;;;;2.02;1.75;;;;;;;17.17;84.51;96381.34;1720339;82;20994;-81
2021/08/04 05:42:52;;;;;;;5.17;1.67;;;;;;;17.20;84.34;96380.89;1711933;81;21346;-81
2021/08/04 05:45:19;;;;;;;2.95;1.30;;;;;;;17.19;84.44;96391.11;1726294;82;21014;-81
2021/08/04 05:47:44;;;;;;;3.37;1.30;;;;;;;17.28;84.50;96392.92;1718702;81;21027;-81
2021/08/04 05:50:11;;;;;;;4.62;1.50;;;;;;;17.38;84.26;96396.59;1712737;83;21476;-81
2021/08/04 05:52:37;;;;;;;2.80;1.55;;;;;;;17.46;84.00;96393.38;1719710;81;21525;-80
2021/08/04 05:55:04;;;;;;;3.20;1.70;;;;;;;17.46;83.67;96390.75;1700846;83;20919;-80
2021/08/04 05:57:30;;;;;;;6.35;1.72;;;;;;;17.47;83.78;96394.46;1677649;83;21098;-81
2021/08/04 05:59:56;;;;;;;5.85;1.70;;;;;;;17.50;83.60;96397.95;1691828;83;20941;-81
2021/08/04 06:02:22;;;;;;;1.52;1.20;;;;;;;17.56;83.77;96397.55;1697063;82;20955;-81
2021/08/04 06:04:47;;;;;;;1.30;1.20;;;;;;;17.62;83.37;96400.61;1709976;82;21358;-81
2021/08/04 06:07:13;;;;;;;2.00;1.40;;;;;;;17.68;83.32;96401.05;1698565;83;20963;-80
2021/08/04 06:09:39;;;;;;;2.02;1.30;;;;;;;17.68;83.30;96395.27;1700003;83;20987;-81
2021/08/04 06:12:06;;;;;;;3.25;1.55;;;;;;;17.71;83.20;96391.39;1685962;83;21309;-81
2021/08/04 06:14:32;;;;;;;3.45;1.37;;;;;;;17.77;82.98;96394.96;1679821;83;20966;-81
2021/08/04 06:16:57;;;;;;;3.12;1.50;;;;;;;17.78;82.72;96393.94;1695741;83;20967;-81
2021/08/04 06:19:23;;;;;;;2.98;2.33;;;;;;;17.82;82.68;96387.19;1735042;81;20969;-80
2021/08/04 06:21:49;;;;;;;2.92;2.33;;;;;;;17.88;81.18;96383.13;1700378;83;20936;-81
2021/08/04 06:24:15;;;;;;;3.52;2.20;;;;;;;17.97;81.44;96385.72;1709122;83;20933;-80
2021/08/04 06:26:40;;;;;;;4.25;2.50;;;;;;;18.03;81.66;96381.37;1705487;83;20925;-80
2021/08/04 06:29:06;;;;;;;5.45;3.75;;;;;;;17.97;81.47;96389.66;1708149;83;20958;-80
2021/08/04 06:31:32;;;;;;;3.87;2.75;;;;;;;17.96;80.81;96383.31;1705720;83;21342;-80
2021/08/04 06:33:57;;;;;;;3.05;2.50;;;;;;;18.04;81.01;96384.28;1670379;83;21014;-80
2021/08/04 06:36:23;;;;;;;4.65;2.50;;;;;;;18.10;80.86;96383.90;1706953;84;20984;-80
2021/08/04 06:38:49;;;;;;;3.95;2.40;;;;;;;18.14;80.18;96386.34;1685033;83;21497;-80
2021/08/04 06:41:15;;;;;;;3.00;2.15;;;;;;;18.20;80.10;96389.38;1741934;81;21032;-80
2021/08/04 06:43:41;;;;;;;3.20;2.47;;;;;;;18.20;80.21;96390.17;1675463;84;21290;-81
2021/08/04 06:46:11;;;;;;;3.87;2.25;;;;;;;18.22;80.08;96396.03;1719750;81;20909;-81
2021/08/04 06:48:37;;;;;;;3.52;2.05;;;;;;;18.26;80.27;96396.36;1726462;81;21050;-81
2021/08/04 06:51:02;;;;;;;3.92;2.72;;;;;;;18.32;80.44;96394.63;1723599;81;21035;-81
2021/08/04 06:53:28;;;;;;;3.85;2.90;;;;;;;18.37;80.87;96397.36;1720439;81;21496;-81
2021/08/04 06:55:54;;;;;;;4.72;3.25;;;;;;;18.38;79.97;96394.50;1735510;81;20990;-81
2021/08/04 06:58:20;;;;;;;3.52;2.80;;;;;;;18.39;79.68;96397.45;1736376;81;21059;-81
2021/08/04 07:00:45;;;;;;;2.90;2.60;;;;;;;18.39;78.75;96396.13;1734431;81;21465;-81
2021/08/04 07:03:11;;;;;;;3.12;2.75;;;;;;;18.42;78.76;96395.66;1726839;82;20991;-81
2021/08/04 07:05:37;;;;;;;4.87;2.12;;;;;;;18.44;78.64;96396.23;1729686;81;21047;-81
2021/08/04 07:08:04;;;;;;;4.15;1.95;;;;;;;18.42;78.52;96393.55;1703165;83;21360;-80
2021/08/04 07:10:30;;;;;;;4.45;3.58;;;;;;;18.38;78.82;96397.13;1700530;82;21018;-81
2021/08/04 07:12:55;;;;;;;3.60;2.72;;;;;;;18.38;77.99;96402.91;1734785;82;20948;-81
2021/08/04 07:15:22;;;;;;;5.90;2.52;;;;;;;18.40;78.32;96402.19;1685983;81;20977;-81
2021/08/04 07:17:49;;;;;;;4.42;3.25;;;;;;;18.42;78.74;96403.55;1710662;81;20988;-81
2021/08/04 07:20:18;;;;;;;4.58;3.12;;;;;;;18.40;77.58;96404.82;1708379;81;21400;-80
2021/08/04 07:22:44;;;;;;;3.92;3.00;;;;;;;18.25;77.14;96402.66;1721686;81;21323;-80
2021/08/04 07:25:10;;;;;;;3.87;3.20;;;;;;;18.26;77.67;96401.63;1732432;81;20998;-81
2021/08/04 07:27:36;;;;;;;3.62;2.95;;;;;;;18.27;77.65;96397.45;1707726;81;20961;-80
2021/08/04 07:30:05;;;;;;;4.67;3.85;;;;;;;18.31;78.11;96400.41;1706441;83;20961;-81
2021/08/04 07:32:30;;;;;;;5.17;2.80;;;;;;;18.34;77.83;96396.52;1727564;81;20937;-80
2021/08/04 07:35:00;;;;;;;5.65;2.85;;;;;;;18.37;78.81;96391.59;1738183;81;20977;-80
2021/08/04 07:37:24;;;;;;;3.05;2.75;;;;;;;18.35;78.38;96394.17;1752612;81;20960;-81
2021/08/04 07:39:49;;;;;;;3.65;3.27;;;;;;;18.34;78.12;96403.09;1727213;81;20991;-81
2021/08/04 07:42:15;;;;;;;4.17;3.30;;;;;;;18.42;77.56;96405.39;1735702;82;21356;-81
2021/08/04 07:44:41;;;;;;;5.17;3.40;;;;;;;18.50;78.03;96404.50;1727381;81;21007;-81
2021/08/04 07:47:06;;;;;;;4.28;3.22;;;;;;;18.61;77.53;96393.69;1766004;81;21039;-81
2021/08/04 07:49:33;;;;;;;3.47;2.92;;;;;;;18.73;77.55;96395.81;1724985;81;21474;-81
2021/08/04 07:51:58;;;;;;;2.85;2.27;;;;;;;18.87;77.71;96397.64;1732184;82;21043;-81
2021/08/04 07:54:24;;;;;;;2.50;1.62;;;;;;;19.02;77.32;96391.88;1707907;83;21020;-81
2021/08/04 07:56:50;;;;;;;2.98;2.60;;;;;;;19.12;75.78;96389.45;1694592;83;21505;-80
2021/08/04 07:59:15;;;;;;;2.80;2.08;;;;;;;19.24;76.77;96398.63;1704300;82;20952;-81
2021/08/04 08:01:41;;;;;;;2.95;2.00;;;;;;;19.29;76.19;96398.20;1722428;82;20941;-80
2021/08/04 08:04:07;;;;;;;3.15;2.00;;;;;;;19.32;76.00;96397.72;1726322;83;20942;-81
2021/08/04 08:06:32;;;;;;;2.37;2.10;;;;;;;19.34;75.28;96395.64;1696843;83;20926;-81
2021/08/04 08:08:59;;;;;;;3.08;1.67;;;;;;;19.40;75.76;96405.25;1714192;83;21095;-81
2021/08/04 08:11:24;;;;;;;2.58;1.60;;;;;;;19.43;74.42;96403.98;1740336;82;21409;-78
2021/08/04 08:13:50;;;;;;;2.75;1.70;;;;;;;19.48;73.58;96413.28;1712544;82;20936;-78
2021/08/04 08:16:17;;;;;;;3.65;1.65;;;;;;;19.65;73.69;96404.11;1710569;83;20976;-78
2021/08/04 08:18:43;;;;;;;3.70;2.12;;;;;;;19.78;73.92;96401.97;1714125;82;21000;-78
2021/08/04 08:21:08;;;;;;;2.52;1.22;;;;;;;19.89;74.80;96409.53;1720147;82;21039;-78
2021/08/04 08:23:34;;;;;;;2.22;1.57;;;;;;;19.89;72.32;96408.73;1717625;82;21365;-78
2021/08/04 08:26:00;;;;;;;2.67;1.70;;;;;;;19.93;71.80;96404.58;1688370;82;21009;-78
2021/08/04 08:28:25;;;;;;;1.90;1.25;;;;;;;19.88;70.57;96403.19;1705999;82;20984;-78
2021/08/04 08:30:51;;;;;;;1.22;0.88;;;;;;;19.88;70.57;96403.19;1711311;82;21367;-78
2021/08/04 08:33:17;;;;;;;1.27;0.93;;;;;;;19.98;70.33;96404.13;1700645;82;21015;-82
2021/08/04 08:35:43;;;;;;;1.82;1.65;;;;;;;20.00;68.70;96396.77;1715530;82;20940;-80
2021/08/04 08:38:08;;;;;;;1.25;1.02;;;;;;;19.99;69.41;96399.65;1701415;83;21044;-80
2021/08/04 08:40:34;;;;;;;2.75;1.10;;;;;;;20.01;70.28;96406.80;1700949;82;20987;-80
2021/08/04 08:43:00;;;;;;;1.75;1.10;;;;;;;20.12;69.91;96407.24;1708780;83;21380;-80
2021/08/04 08:45:26;;;;;;;1.20;1.02;;;;;;;20.26;69.81;96402.44;1694067;83;20991;-80
2021/08/04 08:47:51;;;;;;;2.42;1.30;;;;;;;20.41;70.81;96403.17;1710806;82;20991;-80
2021/08/04 08:50:25;;;;;;;1.50;1.22;;;;;;;20.57;69.52;96403.16;1746650;80;21120;-80
2021/08/04 08:52:49;;;;;;;2.27;0.93;;;;;;;20.59;68.28;96402.92;1723735;82;21003;-80
2021/08/04 08:55:15;;;;;;;1.30;0.90;;;;;;;20.63;68.78;96405.34;1730774;81;21035;-80
2021/08/04 08:57:42;;;;;;;1.40;0.98;;;;;;;20.63;67.33;96405.34;1721686;83;21431;-80
2021/08/04 09:00:09;;;;;;;2.10;1.10;;;;;;;20.66;68.18;96404.84;1721897;81;21407;-80
2021/08/04 09:02:35;;;;;;;1.50;1.05;;;;;;;20.78;67.88;96405.53;1725965;81;20931;-80
2021/08/04 09:05:04;;;;;;;1.10;0.90;;;;;;;20.77;66.71;96403.94;1702745;82;21016;-80
2021/08/04 09:07:38;;;;;;;1.62;0.90;;;;;;;20.73;64.72;96408.64;1729198;82;21096;-80
2021/08/04 09:10:30;;;;;;;1.65;1.20;;;;;;;20.57;66.04;96409.77;1707740;82;21020;-80
2021/08/04 09:12:58;;;;;;;2.95;1.20;;;;;;;20.50;65.65;96409.64;1701369;82;21077;-80
2021/08/04 09:15:37;;;;;;;2.27;1.12;;;;;;;20.46;66.90;96413.30;1715100;82;20961;-80
2021/08/04 09:18:17;;;;;;;1.70;1.20;;;;;;;20.53;67.14;96412.63;1745914;82;20995;-80
2021/08/04 09:20:52;;;;;;;1.52;1.17;;;;;;;20.52;66.74;96414.19;1681256;83;20992;-81
2021/08/04 09:23:16;;;;;;;1.50;1.10;;;;;;;20.52;66.30;96405.75;1741610;82;20980;-80
2021/08/04 09:26:08;;;;;;;2.10;1.07;;;;;;;20.54;65.81;96402.86;1723349;82;20983;-80
2021/08/04 09:29:00;;;;;;;1.92;1.27;;;;;;;20.60;66.94;96404.52;1723578;82;21376;-80
2021/08/04 09:31:48;;;;;;;1.75;1.37;;;;;;;20.60;66.36;96405.84;1706097;82;21008;-82
2021/08/04 09:34:39;;;;;;;3.52;1.05;;;;;;;20.70;66.59;96398.06;1717623;82;20992;-81
2021/08/04 09:37:11;;;;;;;3.27;1.10;;;;;;;20.68;66.11;96396.98;1718420;81;20929;-82
2021/08/04 09:39:40;;;;;;;2.83;1.22;;;;;;;20.74;66.10;96392.55;1723870;81;21332;-81
2021/08/04 09:42:06;;;;;;;3.00;1.20;;;;;;;20.81;65.72;96395.00;1719017;83;21404;-82
2021/08/04 09:44:32;;;;;;;2.33;1.02;;;;;;;20.81;65.16;96395.00;1734553;83;21026;-82
2021/08/04 09:47:12;;;;;;;1.80;1.40;;;;;;;20.80;64.74;96399.48;1745464;81;21024;-82
2021/08/04 09:49:41;;;;;;;2.25;1.67;;;;;;;20.78;64.27;96397.61;1724984;83;21026;-82
2021/08/04 09:52:10;;;;;;;1.87;1.20;;;;;;;20.84;64.25;96396.66;1664862;83;20931;-82
2021/08/04 09:54:40;;;;;;;1.30;0.98;;;;;;;20.95;65.01;96394.38;1703455;82;21330;-82
2021/08/04 09:57:06;;;;;;;2.45;1.12;;;;;;;21.06;64.02;96395.31;1715628;82;21010;-82
2021/08/04 09:59:32;;;;;;;3.05;1.20;;;;;;;21.13;63.55;96389.82;1701674;83;20962;-82
2021/08/04 10:01:59;;;;;;;1.22;1.07;;;;;;;21.13;63.71;96393.78;1737808;81;21465;-82
2021/08/04 10:04:25;;;;;;;1.37;0.68;;;;;;;21.17;63.94;96394.38;1700241;83;20974;-82
2021/08/04 10:07:05;;;;;;;1.70;1.37;;;;;;;21.20;61.84;96393.88;1715316;82;21004;-82
2021/08/04 10:09:31;;;;;;;2.42;1.10;;;;;;;21.17;61.68;96400.19;1744882;81;20968;-82
2021/08/04 10:11:57;;;;;;;1.75;1.10;;;;;;;21.13;62.33;96397.75;1727459;81;21362;-82
2021/08/04 10:14:23;;;;;;;1.50;1.10;;;;;;;21.13;62.36;96397.22;1719493;81;20985;-82
2021/08/04 10:16:51;;;;;;;1.90;1.00;;;;;;;21.05;61.88;96392.92;1744774;82;21067;-82
2021/08/04 10:19:17;;;;;;;1.30;0.95;;;;;;;21.03;62.68;96397.13;1703350;83;21022;-82
2021/08/04 10:21:46;;;;;;;1.25;0.95;;;;;;;21.05;62.28;96401.64;1714745;81;21016;-82
2021/08/04 10:24:12;;;;;;;1.47;1.27;;;;;;;21.05;62.24;96399.00;1698041;83;21002;-81
2021/08/04 10:26:39;;;;;;;1.90;1.20;;;;;;;21.05;62.72;96401.64;1699878;83;20999;-81
2021/08/04 10:29:06;;;;;;;2.12;1.30;;;;;;;21.00;63.66;96405.55;1700847;83;20974;-81
2021/08/04 10:31:33;;;;;;;1.55;1.40;;;;;;;20.92;63.61;96399.37;1699905;83;21042;-81
2021/08/04 10:33:58;;;;;;;2.02;1.60;;;;;;;20.98;64.00;96399.69;1699719;83;20970;-81
2021/08/04 10:36:33;;;;;;;1.80;1.30;;;;;;;20.98;63.81;96395.20;1700161;83;21009;-81
2021/08/04 10:39:02;;;;;;;1.60;1.32;;;;;;;21.03;64.26;96401.09;1723238;82;21001;-81
2021/08/04 10:41:27;;;;;;;2.27;1.70;;;;;;;21.21;64.07;96391.52;1699572;84;21034;-82
2021/08/04 10:43:55;;;;;;;2.52;1.47;;;;;;;21.45;64.21;96387.27;1700860;83;20997;-82
2021/08/04 10:46:33;;;;;;;2.10;1.52;;;;;;;21.74;65.41;96381.19;1715335;82;20960;-82
2021/08/04 10:49:10;;;;;;;2.67;1.55;;;;;;;21.95;64.30;96388.75;1730539;81;21043;-81
2021/08/04 10:51:45;;;;;;;2.65;1.62;;;;;;;22.18;64.33;96387.11;1743370;82;20948;-81
2021/08/04 10:54:17;;;;;;;1.98;1.22;;;;;;;22.39;62.58;96388.02;1695282;82;20978;-82
2021/08/04 10:56:49;;;;;;;2.90;1.50;;;;;;;22.53;62.74;96385.19;1721260;81;20949;-81
2021/08/04 10:59:31;;;;;;;1.62;1.40;;;;;;;22.67;62.49;96383.67;1729435;81;20988;-82
2021/08/04 11:02:08;;;;;;;1.95;1.52;;;;;;;22.76;61.67;96386.61;1731392;81;20985;-82
2021/08/04 11:04:43;;;;;;;1.45;1.20;;;;;;;22.66;61.08;96392.68;1726597;81;20942;-81
2021/08/04 11:07:19;;;;;;;1.60;1.22;;;;;;;22.34;59.52;96392.77;1718246;82;20937;-82
2021/08/04 11:09:56;;;;;;;2.10;1.70;;;;;;;22.10;60.84;96394.19;1722175;81;21362;-82
2021/08/04 11:12:40;;;;;;;2.65;1.80;;;;;;;21.99;61.16;96390.66;1764173;81;20963;-81
2021/08/04 11:15:22;;;;;;;2.55;1.72;;;;;;;22.00;62.19;96396.22;1733715;81;20945;-82
2021/08/04 11:18:10;;;;;;;3.90;1.87;;;;;;;21.97;62.25;96397.25;1714727;81;21036;-82
2021/08/04 11:20:57;;;;;;;2.60;1.70;;;;;;;21.90;63.11;96398.77;1708526;83;21119;-82
2021/08/04 11:23:45;;;;;;;4.22;1.77;;;;;;;21.92;63.00;96391.91;1724741;81;20982;-82
2021/08/04 11:26:27;;;;;;;2.10;1.77;;;;;;;21.95;61.71;96388.22;1756477;81;20934;-82
2021/08/04 11:28:53;;;;;;;2.95;1.90;;;;;;;21.79;62.97;96397.09;1735582;81;21027;-81
2021/08/04 11:31:20;;;;;;;2.58;2.05;;;;;;;21.71;62.83;96392.27;1726739;81;20967;-82
2021/08/04 11:33:45;;;;;;;3.47;1.90;;;;;;;21.68;63.64;96399.39;1729502;81;20953;-82
2021/08/04 11:36:27;;;;;;;3.05;2.05;;;;;;;21.57;63.09;96397.97;1728274;83;20917;-82
2021/08/04 11:39:05;;;;;;;2.70;2.08;;;;;;;21.54;62.98;96397.68;1706890;81;20966;-82
2021/08/04 11:41:45;;;;;;;3.15;2.22;;;;;;;21.45;62.49;96397.32;1748682;81;21071;-82